createdAt,value
2022-08-09T00:00:12.172Z,68.40
2022-08-09T00:02:48.958Z,68.50
2022-08-09T00:06:19.253Z,68.60
2022-08-09T00:08:10.110Z,68.70
2022-08-09T00:10:40.944Z,68.80
2022-08-09T00:13:17.157Z,68.90
2022-08-09T00:15:59.389Z,68.90
2022-08-09T00:18:34.876Z,69.10
2022-08-09T00:21:08.436Z,69.30
2022-08-09T00:23:55.056Z,69.40
2022-08-09T00:26:30.022Z,69.40
2022-08-09T00:29:02.374Z,69.40
2022-08-09T00:31:57.313Z,69.60
2022-08-09T00:34:19.152Z,69.70
2022-08-09T00:36:48.285Z,69.80
2022-08-09T00:40:12.838Z,69.90
2022-08-09T00:44:15.389Z,70.00
2022-08-09T00:44:51.596Z,70.10
2022-08-09T00:47:24.770Z,70.20
2022-08-09T00:49:56.474Z,70.40
2022-08-09T00:52:28.071Z,70.50
2022-08-09T00:55:01.812Z,70.40
2022-08-09T00:57:34.661Z,70.50
2022-08-09T01:00:21.555Z,70.40
2022-08-09T01:03:40.623Z,70.40
2022-08-09T01:06:17.966Z,70.50
2022-08-09T01:09:12.950Z,70.50
2022-08-09T01:12:01.294Z,70.50
2022-08-09T01:15:06.089Z,70.40
2022-08-09T01:17:57.750Z,70.30
2022-08-09T01:21:24.885Z,70.50
2022-08-09T01:24:23.208Z,70.60
2022-08-09T01:27:02.984Z,70.90
2022-08-09T01:30:08.993Z,70.80
2022-08-09T01:32:59.235Z,70.40
2022-08-09T01:35:52.073Z,70.20
2022-08-09T01:38:24.623Z,69.90
2022-08-09T01:41:05.324Z,69.80
2022-08-09T01:43:41.849Z,69.40
2022-08-09T01:46:31.649Z,69.30
2022-08-09T01:49:10.800Z,68.80
2022-08-09T01:51:53.871Z,68.40
2022-08-09T01:54:33.537Z,68.40
2022-08-09T01:57:09.112Z,68.20
2022-08-09T01:59:41.093Z,68.50
2022-08-09T02:02:31.105Z,68.30
2022-08-09T02:05:05.544Z,68.10
2022-08-09T02:08:35.883Z,67.80
2022-08-09T02:10:39.421Z,68.00
2022-08-09T02:13:07.533Z,67.90
2022-08-09T02:15:49.534Z,68.10
2022-08-09T02:18:23.676Z,68.20
2022-08-09T02:20:58.778Z,68.30
2022-08-09T02:23:43.213Z,68.30
2022-08-09T02:26:26.766Z,68.40
2022-08-09T02:29:00.395Z,68.50
2022-08-09T02:31:34.021Z,68.60
2022-08-09T02:34:40.222Z,68.90
2022-08-09T02:37:14.980Z,69.10
2022-08-09T02:39:49.972Z,68.80
2022-08-09T02:42:35.206Z,68.60
2022-08-09T02:45:07.821Z,68.40
2022-08-09T02:47:57.500Z,68.50
2022-08-09T02:50:29.013Z,68.60
2022-08-09T02:53:02.632Z,68.90
2022-08-09T02:55:53.715Z,69.10
2022-08-09T02:58:35.745Z,69.20
2022-08-09T03:01:08.145Z,69.30
2022-08-09T03:04:16.813Z,69.60
2022-08-09T03:06:29.176Z,69.60
2022-08-09T03:08:57.976Z,69.50
2022-08-09T03:12:04.914Z,69.10
2022-08-09T03:14:15.908Z,68.90
2022-08-09T03:16:45.075Z,69.00
2022-08-09T03:19:14.404Z,69.00
2022-08-09T03:22:03.260Z,69.10
2022-08-09T03:24:42.818Z,69.20
2022-08-09T03:27:21.378Z,68.80
2022-08-09T03:30:00.934Z,68.10
2022-08-09T03:32:31.376Z,68.00
2022-08-09T03:35:00.551Z,67.90
2022-08-09T03:37:55.497Z,67.50
2022-08-09T03:40:17.946Z,67.10
2022-08-09T03:42:46.670Z,66.50
2022-08-09T03:45:15.527Z,66.70
2022-08-09T03:47:46.835Z,66.40
2022-08-09T03:50:18.729Z,66.90
2022-08-09T03:52:58.372Z,67.00
2022-08-09T03:55:27.350Z,66.80
2022-08-09T03:58:06.653Z,66.80
2022-08-09T04:00:43.029Z,66.70
2022-08-09T04:03:11.767Z,67.10
2022-08-09T04:05:47.953Z,67.20
2022-08-09T04:08:15.809Z,67.20
2022-08-09T04:10:44.623Z,67.00
2022-08-09T04:13:18.523Z,67.00
2022-08-09T04:16:19.592Z,66.90
2022-08-09T04:18:33.308Z,67.00
2022-08-09T04:21:00.871Z,66.60
2022-08-09T04:23:28.102Z,66.40
2022-08-09T04:25:55.844Z,66.20
2022-08-09T04:28:33.940Z,66.30
2022-08-09T04:31:08.672Z,66.10
2022-08-09T04:33:47.349Z,66.30
2022-08-09T04:36:25.839Z,66.40
2022-08-09T04:38:54.919Z,66.30
2022-08-09T04:41:23.940Z,66.50
2022-08-09T04:44:06.241Z,66.60
2022-08-09T04:46:58.286Z,66.70
2022-08-09T04:49:40.419Z,66.70
2022-08-09T04:52:21.874Z,67.70
2022-08-09T04:54:53.856Z,67.30
2022-08-09T04:57:23.954Z,67.10
2022-08-09T04:59:54.303Z,67.00
2022-08-09T05:02:22.447Z,67.70
2022-08-09T05:04:55.131Z,68.30
2022-08-09T05:07:23.988Z,68.40
2022-08-09T05:09:51.527Z,68.40
2022-08-09T05:12:19.110Z,68.60
2022-08-09T05:14:50.293Z,68.50
2022-08-09T05:18:55.135Z,68.80
2022-08-09T05:20:06.797Z,68.80
2022-08-09T05:23:09.998Z,68.70
2022-08-09T05:25:22.145Z,68.50
2022-08-09T05:27:50.916Z,68.40
2022-08-09T05:30:19.401Z,68.20
2022-08-09T05:32:50.700Z,68.10
2022-08-09T05:35:18.836Z,67.60
2022-08-09T05:37:51.194Z,67.30
2022-08-09T05:40:19.736Z,66.80
2022-08-09T05:42:49.985Z,66.60
2022-08-09T05:45:17.821Z,65.90
2022-08-09T05:47:51.806Z,65.60
2022-08-09T05:50:44.139Z,65.50
2022-08-09T05:53:21.669Z,64.70
2022-08-09T05:55:59.496Z,63.40
2022-08-09T05:58:28.849Z,63.00
2022-08-09T06:00:56.161Z,62.00
2022-08-09T06:03:25.489Z,61.90
2022-08-09T06:06:05.675Z,61.50
2022-08-09T06:08:33.971Z,61.20
2022-08-09T06:11:01.325Z,61.20
2022-08-09T06:13:43.757Z,61.00
2022-08-09T06:16:13.212Z,61.20
2022-08-09T06:18:40.417Z,61.20
2022-08-09T06:21:08.269Z,60.40
2022-08-09T06:23:57.716Z,60.20
2022-08-09T06:26:28.652Z,60.50
2022-08-09T06:29:00.216Z,60.40
2022-08-09T06:31:40.329Z,60.40
2022-08-09T06:34:23.133Z,59.90
2022-08-09T06:36:59.523Z,60.30
2022-08-09T06:39:48.132Z,60.60
2022-08-09T06:42:17.225Z,60.30
2022-08-09T06:44:54.099Z,59.90
2022-08-09T06:47:23.535Z,59.60
2022-08-09T06:50:14.366Z,59.30
2022-08-09T06:52:47.264Z,59.50
2022-08-09T06:55:18.036Z,58.80
2022-08-09T06:58:03.469Z,58.90
2022-08-09T07:00:56.498Z,58.80
2022-08-09T07:03:28.381Z,58.70
2022-08-09T07:06:02.496Z,58.10
2022-08-09T07:08:32.058Z,58.70
2022-08-09T07:10:59.305Z,59.00
2022-08-09T07:13:29.381Z,59.10
2022-08-09T07:16:41.316Z,59.60
2022-08-09T07:18:47.549Z,60.20
2022-08-09T07:21:17.796Z,60.00
2022-08-09T07:23:58.136Z,59.80
2022-08-09T07:26:27.071Z,59.70
2022-08-09T07:29:08.899Z,59.70
2022-08-09T07:31:45.427Z,60.30
2022-08-09T07:34:19.400Z,61.10
2022-08-09T07:36:51.088Z,60.70
2022-08-09T07:39:41.595Z,60.90
2022-08-09T07:42:09.373Z,60.40
2022-08-09T07:44:52.087Z,60.50
2022-08-09T07:47:21.206Z,61.00
2022-08-09T07:50:04.588Z,61.00
2022-08-09T07:52:36.731Z,61.40
2022-08-09T07:55:09.705Z,61.50
2022-08-09T07:57:47.160Z,61.30
2022-08-09T08:00:20.552Z,61.00
2022-08-09T08:03:04.921Z,60.80
2022-08-09T08:05:39.199Z,60.90
2022-08-09T08:09:01.673Z,60.70
2022-08-09T08:12:10.141Z,61.10
2022-08-09T08:13:56.641Z,60.30
2022-08-09T08:16:29.651Z,60.10
2022-08-09T08:18:59.114Z,60.40
2022-08-09T08:21:26.742Z,60.20
2022-08-09T08:23:56.061Z,60.50
2022-08-09T08:26:41.714Z,60.40
2022-08-09T08:29:11.052Z,60.00
2022-08-09T08:32:02.301Z,59.90
2022-08-09T08:34:30.422Z,59.90
2022-08-09T08:37:01.341Z,60.00
2022-08-09T08:39:29.214Z,59.80
2022-08-09T08:42:06.390Z,60.20
2022-08-09T08:44:36.976Z,60.60
2022-08-09T08:47:12.568Z,61.60
2022-08-09T08:49:47.840Z,61.70
2022-08-09T08:55:18.974Z,61.70
2022-08-09T08:57:56.929Z,61.90
2022-08-09T09:00:30.059Z,62.30
2022-08-09T09:03:08.158Z,62.70
2022-08-09T09:06:00.615Z,62.50
2022-08-09T09:08:32.078Z,61.90
2022-08-09T09:11:17.181Z,62.00
2022-08-09T09:13:56.526Z,61.20
2022-08-09T09:16:34.254Z,61.50
2022-08-09T09:19:36.903Z,61.80
2022-08-09T09:21:59.492Z,61.90
2022-08-09T09:24:34.582Z,62.90
2022-08-09T09:27:03.817Z,62.40
2022-08-09T09:30:08.417Z,62.90
2022-08-09T09:32:34.413Z,62.70
2022-08-09T09:35:03.031Z,61.80
2022-08-09T09:37:35.746Z,60.70
2022-08-09T09:40:04.496Z,61.20
2022-08-09T09:42:34.247Z,60.80
2022-08-09T09:45:06.751Z,61.90
2022-08-09T09:47:47.738Z,61.60
2022-08-09T09:50:50.620Z,60.30
2022-08-09T09:53:43.707Z,61.10
2022-08-09T09:56:19.822Z,61.90
2022-08-09T09:58:57.544Z,62.30
2022-08-09T10:01:31.230Z,62.30
2022-08-09T10:04:13.880Z,62.40
2022-08-09T10:06:52.135Z,62.50
2022-08-09T10:09:23.800Z,62.40
2022-08-09T10:12:14.887Z,62.30
2022-08-09T10:14:48.942Z,62.20
2022-08-09T10:17:40.622Z,61.40
2022-08-09T10:20:27.577Z,61.00
2022-08-09T10:23:22.073Z,61.40
2022-08-09T10:26:06.219Z,60.20
2022-08-09T10:29:37.513Z,60.70
2022-08-09T10:32:27.560Z,61.80
2022-08-09T10:34:33.143Z,61.20
2022-08-09T10:37:02.305Z,61.00
2022-08-09T10:39:40.656Z,61.20
2022-08-09T10:42:16.612Z,61.40
2022-08-09T10:44:50.172Z,60.40
2022-08-09T10:47:41.680Z,60.70
2022-08-09T10:50:59.754Z,59.80
2022-08-09T10:53:59.719Z,58.70
2022-08-09T10:56:42.237Z,59.10
2022-08-09T10:59:31.056Z,60.20
2022-08-09T11:03:16.158Z,60.70
2022-08-09T11:05:25.480Z,61.00
2022-08-09T11:08:17.947Z,60.30
2022-08-09T11:11:00.600Z,57.00
2022-08-09T11:13:51.217Z,55.80
2022-08-09T11:16:39.141Z,53.40
2022-08-09T11:19:10.255Z,52.60
2022-08-09T11:22:16.659Z,52.40
2022-08-09T11:25:08.431Z,52.50
2022-08-09T11:28:08.086Z,52.40
2022-08-09T11:30:35.561Z,52.40
2022-08-09T11:33:35.528Z,51.30
2022-08-09T11:36:03.475Z,49.30
2022-08-09T11:38:34.154Z,48.20
2022-08-09T11:41:13.832Z,49.80
2022-08-09T11:43:48.993Z,49.30
2022-08-09T11:46:18.647Z,50.80
2022-08-09T11:49:00.287Z,49.20
2022-08-09T11:53:03.411Z,50.50
2022-08-09T11:54:27.927Z,52.80
2022-08-09T11:57:47.898Z,52.80
2022-08-09T12:00:33.152Z,52.70
2022-08-09T12:03:31.894Z,53.60
2022-08-09T12:05:51.277Z,55.20
2022-08-09T12:08:21.599Z,55.90
2022-08-09T12:10:53.081Z,56.40
2022-08-09T12:14:07.233Z,55.90
2022-08-09T12:16:38.520Z,54.30
2022-08-09T12:19:09.446Z,52.20
2022-08-09T12:21:52.192Z,49.40
2022-08-09T12:24:24.368Z,51.00
2022-08-09T12:29:11.407Z,50.20
2022-08-09T12:30:01.799Z,49.70
2022-08-09T12:32:42.607Z,48.90
2022-08-09T12:35:13.231Z,50.50
2022-08-09T12:37:50.010Z,48.50
2022-08-09T12:40:21.293Z,49.20
2022-08-09T12:42:51.048Z,48.30
2022-08-09T12:45:34.649Z,49.00
2022-08-09T12:48:19.926Z,48.30
2022-08-09T12:50:53.094Z,48.90
2022-08-09T12:53:41.241Z,48.50
2022-08-09T12:56:39.381Z,47.30
2022-08-09T12:59:17.834Z,48.10
2022-08-09T13:01:59.257Z,49.90
2022-08-09T13:04:37.249Z,49.50
2022-08-09T13:07:19.968Z,48.00
2022-08-09T13:10:34.761Z,46.40
2022-08-09T13:13:10.259Z,46.60
2022-08-09T13:15:54.056Z,46.20
2022-08-09T13:18:27.329Z,47.70
2022-08-09T13:22:33.877Z,46.40
2022-08-09T13:24:42.534Z,49.50
2022-08-09T13:26:42.636Z,47.10
2022-08-09T13:29:14.075Z,46.10
2022-08-09T13:32:17.101Z,49.30
2022-08-09T13:34:47.324Z,48.80
2022-08-09T13:37:51.386Z,50.00
2022-08-09T13:41:54.073Z,51.50
2022-08-09T13:42:52.864Z,54.30
2022-08-09T13:45:20.304Z,55.60
2022-08-09T13:47:51.822Z,59.00
2022-08-09T13:50:31.012Z,59.60
2022-08-09T13:52:59.250Z,60.20
2022-08-09T13:55:29.121Z,61.50
2022-08-09T13:57:59.335Z,61.40
2022-08-09T14:00:29.283Z,61.90
2022-08-09T14:03:04.535Z,62.60
2022-08-09T14:05:58.141Z,63.10
2022-08-09T14:08:31.562Z,63.40
2022-08-09T14:11:01.242Z,63.50
2022-08-09T14:14:24.316Z,64.30
2022-08-09T14:16:19.660Z,64.60
2022-08-09T14:18:57.328Z,65.50
2022-08-09T14:21:29.622Z,66.30
2022-08-09T14:24:01.251Z,67.00
2022-08-09T14:26:37.754Z,67.00
2022-08-09T14:29:08.072Z,67.40
2022-08-09T14:31:54.505Z,67.50
2022-08-09T14:34:31.956Z,66.00
2022-08-09T14:37:06.276Z,66.30
2022-08-09T14:39:46.516Z,66.40
2022-08-09T14:42:31.928Z,67.10
2022-08-09T14:46:59.034Z,68.70
2022-08-09T14:48:05.573Z,69.10
2022-08-09T14:50:36.940Z,69.20
2022-08-09T14:53:11.277Z,68.40
2022-08-09T14:55:42.070Z,68.90
2022-08-09T14:58:09.858Z,69.40
2022-08-09T15:00:37.390Z,69.40
2022-08-09T15:03:10.629Z,69.30
2022-08-09T15:05:39.592Z,68.80
2022-08-09T15:08:13.308Z,67.10
2022-08-09T15:10:43.793Z,67.60
2022-08-09T15:13:47.749Z,64.60
2022-08-09T15:16:16.159Z,54.30
2022-08-09T15:18:43.382Z,51.20
2022-08-09T15:21:56.277Z,50.70
2022-08-09T15:24:05.726Z,51.80
2022-08-09T15:26:45.990Z,53.90
2022-08-09T15:30:56.928Z,55.70
2022-08-09T15:32:02.126Z,56.10
2022-08-09T15:34:32.639Z,55.50
2022-08-09T15:37:03.935Z,55.20
2022-08-09T15:39:43.908Z,55.20
2022-08-09T15:42:19.552Z,55.30
2022-08-09T15:44:49.802Z,55.50
2022-08-09T15:47:21.582Z,55.70
2022-08-09T15:50:04.393Z,55.80
2022-08-09T15:52:34.118Z,55.80
2022-08-09T15:55:03.058Z,55.90
2022-08-09T15:57:35.981Z,55.80
2022-08-09T16:00:24.242Z,55.50
2022-08-09T16:02:54.803Z,55.50
2022-08-09T16:05:47.818Z,55.10
2022-08-09T16:08:30.628Z,54.70
2022-08-09T16:11:03.373Z,54.50
2022-08-09T16:14:05.385Z,54.30
2022-08-09T16:16:19.967Z,54.10
2022-08-09T16:18:48.057Z,54.20
2022-08-09T16:21:17.331Z,54.00
2022-08-09T16:23:58.710Z,53.80
2022-08-09T16:26:35.005Z,53.50
2022-08-09T16:29:11.264Z,53.50
2022-08-09T16:32:20.274Z,53.00
2022-08-09T16:34:54.821Z,52.80
2022-08-09T16:37:54.786Z,52.80
2022-08-09T16:40:13.564Z,52.60
2022-08-09T16:42:45.481Z,52.80
2022-08-09T16:45:17.787Z,52.50
2022-08-09T16:48:39.647Z,52.40
2022-08-09T16:50:38.446Z,52.10
2022-08-09T16:53:06.313Z,51.90
2022-08-09T16:55:58.821Z,51.40
2022-08-09T16:58:21.362Z,51.40
2022-08-09T17:00:49.542Z,51.30
2022-08-09T17:03:21.292Z,51.10
2022-08-09T17:06:03.509Z,50.70
2022-08-09T17:08:46.753Z,49.80
2022-08-09T17:11:40.676Z,49.30
2022-08-09T17:14:15.942Z,48.50
2022-08-09T17:17:01.601Z,47.20
2022-08-09T17:19:47.165Z,46.90
2022-08-09T17:22:28.779Z,46.00
2022-08-09T17:25:02.710Z,44.50
2022-08-09T17:27:33.702Z,43.00
2022-08-09T17:30:04.910Z,42.70
2022-08-09T17:32:37.913Z,42.80
2022-08-09T17:35:11.735Z,42.80
2022-08-09T17:38:10.199Z,42.60
2022-08-09T17:40:28.889Z,42.60
2022-08-09T17:42:59.642Z,42.50
2022-08-09T17:46:02.606Z,42.40
2022-08-09T17:48:29.142Z,42.80
2022-08-09T17:51:08.930Z,43.50
2022-08-09T17:53:42.821Z,44.50
2022-08-09T17:56:11.080Z,45.10
2022-08-09T17:58:38.327Z,46.10
2022-08-09T18:01:15.367Z,47.10
2022-08-09T18:03:54.614Z,47.70
2022-08-09T18:06:30.807Z,48.10
2022-08-09T18:09:03.446Z,48.40
2022-08-09T18:12:04.855Z,48.20
2022-08-09T18:14:21.107Z,48.40
2022-08-09T18:16:49.754Z,48.70
2022-08-09T18:20:56.290Z,48.90
2022-08-09T18:22:06.427Z,49.00
2022-08-09T18:24:45.738Z,49.20
2022-08-09T18:27:59.781Z,49.10
2022-08-09T18:30:41.837Z,49.20
2022-08-09T18:32:54.468Z,49.10
2022-08-09T18:35:58.578Z,49.00
2022-08-09T18:38:11.768Z,49.00
2022-08-09T18:40:40.775Z,49.10
2022-08-09T18:43:08.941Z,49.30
2022-08-09T18:46:49.336Z,49.40
2022-08-09T18:48:30.115Z,49.50
2022-08-09T18:51:00.813Z,49.60
2022-08-09T18:53:55.962Z,49.60
2022-08-09T18:56:17.345Z,49.80
2022-08-09T18:58:47.746Z,50.40
2022-08-09T19:01:23.111Z,51.80
2022-08-09T19:04:01.327Z,54.90
2022-08-09T19:06:36.322Z,59.20
2022-08-09T19:09:07.869Z,62.30
2022-08-09T19:11:41.705Z,64.50
2022-08-09T19:14:09.053Z,65.80
2022-08-09T19:16:38.644Z,66.70
2022-08-09T19:19:21.501Z,67.00
2022-08-09T19:22:04.781Z,67.00
2022-08-09T19:25:08.913Z,67.60
2022-08-09T19:27:28.486Z,67.80
2022-08-09T19:30:22.937Z,67.80
2022-08-09T19:32:44.497Z,67.80
2022-08-09T19:35:11.765Z,67.90
2022-08-09T19:37:54.025Z,67.50
2022-08-09T19:40:24.306Z,66.60
2022-08-09T19:43:05.257Z,66.40
2022-08-09T19:45:39.243Z,66.30
2022-08-09T19:48:11.028Z,66.40
2022-08-09T19:50:49.085Z,66.00
2022-08-09T19:53:20.905Z,65.70
2022-08-09T19:56:01.888Z,65.20
2022-08-09T19:58:33.718Z,63.70
2022-08-09T20:01:01.557Z,63.40
2022-08-09T20:04:12.329Z,63.10
2022-08-09T20:06:22.922Z,62.40
2022-08-09T20:08:55.196Z,61.90
2022-08-09T20:11:26.261Z,61.60
2022-08-09T20:13:55.030Z,61.20
2022-08-09T20:16:37.863Z,61.10
2022-08-09T20:19:49.517Z,61.20
2022-08-09T20:22:00.789Z,61.20
2022-08-09T20:24:33.801Z,60.80
2022-08-09T20:27:08.255Z,60.90
2022-08-09T20:29:39.448Z,60.90
2022-08-09T20:32:30.773Z,60.90
2022-08-09T20:35:01.571Z,60.70
2022-08-09T20:38:18.643Z,60.60
2022-08-09T20:40:27.279Z,60.50
2022-08-09T20:43:00.216Z,60.30
2022-08-09T20:45:59.103Z,60.20
2022-08-09T20:48:29.056Z,60.20
2022-08-09T20:51:00.145Z,60.10
2022-08-09T20:53:37.225Z,60.10
2022-08-09T20:56:12.912Z,60.00
2022-08-09T20:58:54.184Z,60.10
2022-08-09T21:01:35.010Z,60.20
2022-08-09T21:05:51.660Z,60.10
2022-08-09T21:07:11.751Z,59.80
2022-08-09T21:09:45.304Z,59.70
2022-08-09T21:14:48.268Z,59.30
2022-08-09T21:18:22.167Z,59.40
2022-08-09T21:20:22.139Z,59.30
2022-08-09T21:22:53.896Z,59.10
2022-08-09T21:25:44.390Z,58.90
2022-08-09T21:28:28.028Z,58.90
2022-08-09T21:31:18.181Z,58.70
2022-08-09T21:33:52.779Z,58.30
2022-08-09T21:36:30.656Z,58.10
2022-08-09T21:38:59.522Z,57.70
2022-08-09T21:42:05.398Z,57.80
2022-08-09T21:44:33.785Z,57.70
2022-08-09T21:47:08.570Z,57.60
2022-08-09T21:49:39.321Z,57.70
2022-08-09T21:52:16.278Z,57.80
2022-08-09T21:54:46.506Z,57.80
2022-08-09T21:57:37.745Z,57.60
2022-08-09T22:00:25.809Z,57.70
2022-08-09T22:02:59.117Z,57.80
2022-08-09T22:05:35.471Z,57.70
2022-08-09T22:08:13.447Z,57.70
2022-08-09T22:11:48.777Z,57.60
2022-08-09T22:13:34.747Z,57.80
2022-08-09T22:16:07.338Z,57.70
2022-08-09T22:18:37.336Z,57.80
2022-08-09T22:21:09.548Z,57.60
2022-08-09T22:23:59.649Z,57.70
2022-08-09T22:26:35.361Z,57.50
2022-08-09T22:29:09.993Z,57.40
2022-08-09T22:31:50.570Z,57.30
2022-08-09T22:34:28.013Z,57.30
2022-08-09T22:36:57.471Z,57.20
2022-08-09T22:39:55.887Z,57.30
2022-08-09T22:42:22.227Z,57.30
2022-08-09T22:45:00.278Z,57.10
2022-08-09T22:48:15.222Z,57.10
2022-08-09T22:50:31.647Z,57.00
2022-08-09T22:53:03.779Z,57.00
2022-08-09T22:56:05.920Z,56.90
2022-08-09T22:58:30.592Z,56.90
2022-08-09T23:01:05.654Z,56.90
2022-08-09T23:04:03.695Z,57.00
2022-08-09T23:06:32.759Z,57.10
2022-08-09T23:09:06.771Z,57.10
2022-08-09T23:11:34.223Z,57.20
2022-08-09T23:14:03.235Z,57.30
2022-08-09T23:16:31.365Z,57.30
2022-08-09T23:18:59.043Z,57.20
2022-08-09T23:21:30.097Z,57.20
2022-08-09T23:24:05.496Z,57.10
2022-08-09T23:26:36.372Z,57.20
2022-08-09T23:29:05.532Z,57.10
2022-08-09T23:31:33.660Z,56.80
2022-08-09T23:34:01.045Z,56.70
2022-08-09T23:36:31.005Z,56.70
2022-08-09T23:38:58.312Z,56.70
2022-08-09T23:41:28.938Z,56.50
2022-08-09T23:44:01.616Z,56.30
2022-08-09T23:46:30.477Z,56.10
2022-08-09T23:48:59.206Z,55.70
2022-08-09T23:51:27.721Z,55.60
2022-08-09T23:54:02.104Z,55.40
2022-08-09T23:56:52.885Z,55.30
2022-08-09T23:59:22.133Z,55.10
